createdAt,value
2022-11-15T00:00:52.008Z,84.73
2022-11-15T00:03:21.475Z,84.70
2022-11-15T00:05:48.487Z,84.75
2022-11-15T00:08:15.164Z,84.42
2022-11-15T00:10:41.786Z,84.56
2022-11-15T00:13:09.729Z,84.56
2022-11-15T00:15:37.535Z,84.95
2022-11-15T00:18:05.724Z,85.28
2022-11-15T00:20:34.649Z,85.54
2022-11-15T00:23:01.149Z,85.08
2022-11-15T00:25:28.307Z,85.34
2022-11-15T00:27:58.636Z,85.36
2022-11-15T00:30:25.760Z,85.20
2022-11-15T00:32:52.348Z,85.46
2022-11-15T00:35:20.247Z,85.30
2022-11-15T00:37:48.497Z,85.15
2022-11-15T00:40:16.163Z,84.85
2022-11-15T00:42:42.910Z,84.97
2022-11-15T00:45:10.487Z,85.46
2022-11-15T00:47:37.063Z,85.56
2022-11-15T00:50:04.192Z,85.08
2022-11-15T00:52:30.745Z,85.31
2022-11-15T00:54:57.391Z,85.26
2022-11-15T00:57:23.933Z,85.11
2022-11-15T00:59:50.479Z,85.47
2022-11-15T01:02:17.043Z,85.29
2022-11-15T01:04:43.609Z,85.08
2022-11-15T01:07:10.233Z,84.90
2022-11-15T01:09:36.905Z,85.13
2022-11-15T01:12:03.699Z,85.22
2022-11-15T01:14:30.243Z,85.23
2022-11-15T01:16:56.778Z,85.10
2022-11-15T01:19:23.358Z,84.92
2022-11-15T01:21:51.217Z,85.31
2022-11-15T01:24:18.221Z,85.43
2022-11-15T01:26:44.901Z,85.68
2022-11-15T01:29:11.492Z,85.81
2022-11-15T01:31:38.111Z,85.31
2022-11-15T01:34:04.674Z,85.18
2022-11-15T01:36:31.241Z,84.90
2022-11-15T01:38:59.231Z,85.18
2022-11-15T01:41:32.369Z,85.07
2022-11-15T01:44:37.339Z,85.59
2022-11-15T01:47:10.091Z,85.18
2022-11-15T01:49:40.381Z,85.11
2022-11-15T01:52:11.527Z,85.28
2022-11-15T01:54:38.140Z,85.53
2022-11-15T01:57:10.868Z,85.27
2022-11-15T01:59:40.918Z,85.46
2022-11-15T02:02:07.575Z,85.73
2022-11-15T02:04:38.963Z,85.98
2022-11-15T02:07:08.058Z,85.88
2022-11-15T02:09:36.709Z,86.12
2022-11-15T02:12:03.730Z,86.33
2022-11-15T02:14:32.271Z,86.22
2022-11-15T02:17:26.564Z,86.54
2022-11-15T02:20:26.509Z,86.83
2022-11-15T02:23:02.122Z,86.85
2022-11-15T02:25:28.623Z,86.60
2022-11-15T02:28:07.641Z,86.96
2022-11-15T02:30:42.538Z,86.98
2022-11-15T02:33:32.036Z,87.56
2022-11-15T02:36:01.024Z,87.55
2022-11-15T02:38:39.523Z,87.00
2022-11-15T02:41:14.275Z,87.42
2022-11-15T02:43:58.713Z,87.66
2022-11-15T02:46:56.099Z,87.61
2022-11-15T02:49:26.178Z,87.46
2022-11-15T02:51:55.813Z,87.84
2022-11-15T02:54:29.687Z,87.58
2022-11-15T02:57:02.098Z,87.42
2022-11-15T03:00:04.678Z,87.46
2022-11-15T03:02:33.858Z,86.79
2022-11-15T03:05:28.416Z,86.92
2022-11-15T03:08:18.888Z,87.58
2022-11-15T03:11:12.375Z,87.49
2022-11-15T03:14:01.525Z,87.41
2022-11-15T03:16:48.906Z,87.45
2022-11-15T03:19:30.122Z,87.23
2022-11-15T03:21:59.486Z,87.31
2022-11-15T03:24:28.096Z,87.63
2022-11-15T03:26:56.925Z,87.81
2022-11-15T03:29:33.565Z,88.26
2022-11-15T03:32:03.757Z,88.22
2022-11-15T03:34:35.195Z,88.11
2022-11-15T03:37:02.663Z,87.91
2022-11-15T03:39:30.240Z,87.97
2022-11-15T03:42:25.593Z,88.21
2022-11-15T03:44:52.081Z,87.90
2022-11-15T03:47:25.462Z,87.94
2022-11-15T03:50:02.244Z,87.71
2022-11-15T03:52:34.293Z,87.59
2022-11-15T03:55:03.048Z,87.71
2022-11-15T03:57:29.715Z,87.83
2022-11-15T03:59:56.246Z,87.95
2022-11-15T04:02:22.906Z,87.53
2022-11-15T04:04:49.439Z,88.32
2022-11-15T04:07:16.041Z,87.88
2022-11-15T04:10:01.865Z,87.58
2022-11-15T04:12:34.755Z,87.44
2022-11-15T04:15:09.806Z,88.26
2022-11-15T04:17:41.073Z,87.73
2022-11-15T04:20:30.071Z,87.51
2022-11-15T04:23:16.993Z,88.03
2022-11-15T04:25:44.911Z,87.81
2022-11-15T04:28:12.973Z,88.14
2022-11-15T04:30:39.875Z,88.09
2022-11-15T04:33:06.749Z,88.04
2022-11-15T04:35:33.526Z,87.91
2022-11-15T04:38:00.421Z,87.31
2022-11-15T04:40:27.076Z,87.15
2022-11-15T04:42:53.622Z,87.39
2022-11-15T04:45:20.514Z,87.66
2022-11-15T04:47:47.731Z,88.00
2022-11-15T04:50:15.343Z,87.82
2022-11-15T04:52:52.332Z,87.77
2022-11-15T04:55:19.010Z,87.56
2022-11-15T04:57:45.492Z,87.61
2022-11-15T05:00:16.946Z,87.54
2022-11-15T05:03:02.351Z,87.37
2022-11-15T05:05:28.982Z,87.36
2022-11-15T05:07:55.499Z,87.59
2022-11-15T05:10:22.339Z,87.14
2022-11-15T05:12:49.463Z,86.54
2022-11-15T05:15:16.364Z,86.46
2022-11-15T05:17:42.911Z,86.64
2022-11-15T05:20:10.107Z,86.57
2022-11-15T05:22:36.801Z,86.29
2022-11-15T05:25:03.796Z,85.88
2022-11-15T05:27:30.279Z,86.18
2022-11-15T05:29:56.801Z,85.98
2022-11-15T05:32:23.380Z,86.57
2022-11-15T05:34:50.045Z,86.85
2022-11-15T05:37:17.773Z,87.02
2022-11-15T05:39:44.376Z,86.84
2022-11-15T05:42:14.131Z,87.10
2022-11-15T05:44:44.835Z,86.98
2022-11-15T05:47:13.837Z,86.89
2022-11-15T05:49:45.007Z,86.98
2022-11-15T05:52:16.056Z,86.58
2022-11-15T05:54:43.273Z,87.65
2022-11-15T05:57:09.988Z,87.64
2022-11-15T05:59:37.179Z,86.41
2022-11-15T06:02:03.861Z,86.99
2022-11-15T06:04:30.503Z,86.98
2022-11-15T06:06:59.244Z,86.99
2022-11-15T06:09:25.786Z,87.12
2022-11-15T06:11:52.305Z,86.66
2022-11-15T06:14:18.811Z,86.29
2022-11-15T06:16:45.340Z,86.57
2022-11-15T06:19:11.893Z,86.81
2022-11-15T06:21:38.415Z,86.87
2022-11-15T06:24:06.374Z,86.68
2022-11-15T06:26:33.022Z,86.96
2022-11-15T06:28:59.579Z,87.07
2022-11-15T06:31:26.135Z,87.71
2022-11-15T06:33:52.628Z,88.03
2022-11-15T06:36:19.474Z,87.69
2022-11-15T06:38:46.207Z,87.31
2022-11-15T06:41:13.902Z,87.35
2022-11-15T06:43:41.177Z,86.90
2022-11-15T06:46:08.608Z,87.35
2022-11-15T06:48:35.865Z,87.38
2022-11-15T06:51:03.821Z,87.10
2022-11-15T06:53:31.389Z,86.92
2022-11-15T06:56:06.262Z,86.98
2022-11-15T06:58:33.081Z,87.62
2022-11-15T07:01:05.951Z,87.09
2022-11-15T07:03:33.316Z,87.19
2022-11-15T07:06:05.761Z,90.02
2022-11-15T07:08:34.088Z,87.60
2022-11-15T07:11:03.265Z,86.84
2022-11-15T07:13:34.683Z,86.42
2022-11-15T07:16:09.257Z,86.30
2022-11-15T07:18:37.359Z,85.77
2022-11-15T07:21:05.919Z,85.30
2022-11-15T07:23:33.166Z,85.85
2022-11-15T07:26:00.415Z,85.86
2022-11-15T07:28:27.662Z,85.85
2022-11-15T07:30:54.823Z,85.69
2022-11-15T07:33:21.628Z,85.64
2022-11-15T07:35:51.266Z,86.20
2022-11-15T07:38:20.690Z,86.15
2022-11-15T07:40:47.974Z,86.09
2022-11-15T07:43:14.657Z,86.17
2022-11-15T07:45:45.765Z,85.82
2022-11-15T07:48:12.653Z,85.35
2022-11-15T07:50:43.206Z,84.82
2022-11-15T07:53:10.767Z,84.92
2022-11-15T07:55:38.041Z,85.29
2022-11-15T07:58:06.653Z,84.53
2022-11-15T08:00:34.191Z,85.29
2022-11-15T08:03:16.108Z,85.20
2022-11-15T08:05:44.069Z,85.82
2022-11-15T08:08:12.005Z,85.61
2022-11-15T08:10:40.779Z,85.30
2022-11-15T08:13:10.080Z,85.00
2022-11-15T08:15:37.945Z,84.87
2022-11-15T08:18:13.033Z,85.04
2022-11-15T08:20:39.769Z,84.81
2022-11-15T08:23:11.238Z,84.96
2022-11-15T08:25:38.457Z,84.87
2022-11-15T08:28:07.301Z,84.82
2022-11-15T08:30:43.926Z,84.41
2022-11-15T08:33:14.499Z,84.53
2022-11-15T08:35:43.058Z,84.87
2022-11-15T08:38:10.064Z,85.32
2022-11-15T08:40:36.861Z,85.11
2022-11-15T08:43:04.026Z,84.64
2022-11-15T08:45:31.462Z,84.31
2022-11-15T08:47:58.384Z,84.66
2022-11-15T08:50:25.037Z,85.16
2022-11-15T08:52:51.647Z,85.27
2022-11-15T08:55:18.178Z,85.75
2022-11-15T08:57:45.225Z,85.21
2022-11-15T09:00:13.299Z,84.02
2022-11-15T09:02:40.777Z,84.30
2022-11-15T09:05:08.591Z,84.66
2022-11-15T09:07:35.346Z,85.14
2022-11-15T09:10:01.901Z,85.74
2022-11-15T09:12:28.591Z,85.35
2022-11-15T09:14:55.739Z,85.18
2022-11-15T09:17:24.980Z,84.88
2022-11-15T09:19:52.069Z,84.19
2022-11-15T09:22:19.875Z,83.52
2022-11-15T09:24:46.481Z,83.51
2022-11-15T09:27:14.317Z,83.70
2022-11-15T09:29:41.234Z,83.63
2022-11-15T09:32:07.740Z,83.87
2022-11-15T09:34:34.402Z,83.96
2022-11-15T09:37:00.942Z,84.06
2022-11-15T09:39:27.486Z,83.93
2022-11-15T09:42:36.148Z,84.02
2022-11-15T09:45:12.079Z,83.88
2022-11-15T09:48:17.492Z,84.21
2022-11-15T09:50:51.829Z,84.02
2022-11-15T09:53:57.601Z,83.70
2022-11-15T09:56:23.225Z,83.52
2022-11-15T09:59:07.252Z,84.07
2022-11-15T10:01:40.078Z,83.49
2022-11-15T10:04:10.743Z,83.91
2022-11-15T10:06:47.184Z,83.97
2022-11-15T10:09:45.414Z,84.22
2022-11-15T10:12:14.789Z,83.36
2022-11-15T10:14:42.464Z,83.47
2022-11-15T10:17:23.979Z,86.07
2022-11-15T10:20:11.502Z,84.15
2022-11-15T10:22:41.025Z,84.61
2022-11-15T10:25:10.369Z,84.13
2022-11-15T10:27:37.391Z,83.30
2022-11-15T10:30:05.510Z,83.91
2022-11-15T10:32:37.419Z,83.70
2022-11-15T10:35:20.691Z,83.46
2022-11-15T10:37:47.449Z,84.37
2022-11-15T10:40:19.615Z,83.99
2022-11-15T10:42:46.656Z,84.02
2022-11-15T10:45:30.173Z,85.42
2022-11-15T10:48:14.828Z,83.77
2022-11-15T10:50:43.682Z,83.58
2022-11-15T10:53:37.991Z,83.33
2022-11-15T10:56:09.384Z,83.72
2022-11-15T10:58:42.272Z,83.73
2022-11-15T11:01:16.400Z,83.49
2022-11-15T11:03:45.364Z,83.87
2022-11-15T11:06:18.009Z,83.74
2022-11-15T11:09:04.369Z,83.65
2022-11-15T11:11:49.338Z,83.95
2022-11-15T11:14:28.360Z,84.02
2022-11-15T11:17:14.502Z,83.94
2022-11-15T11:20:14.807Z,84.12
2022-11-15T11:23:04.966Z,83.88
2022-11-15T11:25:37.312Z,83.98
2022-11-15T11:28:17.907Z,83.84
2022-11-15T11:31:05.445Z,84.19
2022-11-15T11:33:37.619Z,83.77
2022-11-15T11:36:30.257Z,83.78
2022-11-15T11:39:07.158Z,83.40
2022-11-15T11:41:40.752Z,83.42
2022-11-15T11:44:19.267Z,84.15
2022-11-15T11:47:05.342Z,83.89
2022-11-15T11:49:35.582Z,84.33
2022-11-15T15:31:25.627Z,85.46
2022-11-15T15:33:52.140Z,85.20
2022-11-15T15:36:19.797Z,85.95
2022-11-15T15:38:47.692Z,87.04
2022-11-15T15:41:17.882Z,88.02
2022-11-15T15:43:45.009Z,87.70
2022-11-15T15:46:17.812Z,86.74
2022-11-15T15:48:45.308Z,86.91
2022-11-15T15:51:18.690Z,86.64
2022-11-15T15:53:47.526Z,86.52
2022-11-15T15:56:14.043Z,87.39
2022-11-15T15:58:40.648Z,87.29
2022-11-15T16:01:07.275Z,88.17
2022-11-15T16:03:34.060Z,88.39
2022-11-15T16:06:00.775Z,88.32
2022-11-15T16:08:31.933Z,88.57
2022-11-15T16:11:07.275Z,88.51
2022-11-15T16:13:33.779Z,88.47
2022-11-15T16:16:01.354Z,88.58
2022-11-15T16:18:27.970Z,89.18
2022-11-15T16:20:57.711Z,89.77
2022-11-15T16:23:25.596Z,89.42
2022-11-15T16:25:56.479Z,89.92
2022-11-15T16:28:32.627Z,89.71
2022-11-15T16:31:05.858Z,90.04
2022-11-15T16:33:33.749Z,90.15
2022-11-15T16:36:00.942Z,89.84
2022-11-15T16:38:27.473Z,90.30
2022-11-15T16:40:54.017Z,89.94
2022-11-15T16:43:20.595Z,89.82
2022-11-15T16:45:47.190Z,89.95
2022-11-15T16:48:26.067Z,90.11
2022-11-15T16:50:57.553Z,90.15
2022-11-15T16:53:25.030Z,90.51
2022-11-15T16:55:51.576Z,90.90
2022-11-15T16:58:18.149Z,90.56
2022-11-15T17:00:44.792Z,90.52
2022-11-15T17:03:12.058Z,91.02
2022-11-15T17:05:38.614Z,91.53
2022-11-15T17:08:05.139Z,91.57
2022-11-15T17:10:31.740Z,91.59
2022-11-15T17:12:58.286Z,91.37
2022-11-15T17:15:25.579Z,91.64
2022-11-15T17:17:54.020Z,91.74
2022-11-15T17:20:23.919Z,91.58
2022-11-15T17:22:50.641Z,91.73
2022-11-15T17:25:17.833Z,91.60
2022-11-15T17:27:44.473Z,91.85
2022-11-15T17:30:15.559Z,91.66
2022-11-15T17:32:43.603Z,91.65
2022-11-15T17:35:15.362Z,91.50
2022-11-15T17:37:42.532Z,91.52
2022-11-15T17:40:09.948Z,91.19
2022-11-15T17:42:36.518Z,91.53
2022-11-15T17:45:09.299Z,91.61
2022-11-15T17:47:36.087Z,91.87
2022-11-15T17:50:05.222Z,91.68
2022-11-15T17:52:31.772Z,91.18
2022-11-15T17:54:58.317Z,91.40
2022-11-15T17:57:24.815Z,90.56
2022-11-15T17:59:51.356Z,91.29
2022-11-15T18:02:18.013Z,91.59
2022-11-15T18:04:44.588Z,91.38
2022-11-15T18:07:12.416Z,91.73
2022-11-15T18:09:42.374Z,91.72
2022-11-15T18:12:09.394Z,91.96
2022-11-15T18:14:35.916Z,91.63
2022-11-15T18:17:02.715Z,91.79
2022-11-15T18:19:29.204Z,91.40
2022-11-15T18:22:04.390Z,91.28
2022-11-15T18:24:35.554Z,91.48
2022-11-15T18:27:04.379Z,91.68
2022-11-15T18:29:32.589Z,91.22
2022-11-15T18:31:59.461Z,91.05
2022-11-15T18:34:33.565Z,91.75
2022-11-15T18:37:01.269Z,91.71
2022-11-15T18:39:27.809Z,91.57
2022-11-15T18:41:54.636Z,91.40
2022-11-15T18:44:21.740Z,91.77
2022-11-15T18:46:48.708Z,91.67
2022-11-15T18:49:20.559Z,91.50
2022-11-15T18:51:48.631Z,91.84
2022-11-15T18:54:16.718Z,91.52
2022-11-15T18:56:47.235Z,91.26
2022-11-15T18:59:14.449Z,91.10
2022-11-15T19:01:47.946Z,91.28
2022-11-15T19:04:18.573Z,91.23
2022-11-15T19:06:47.997Z,91.39
2022-11-15T19:09:16.948Z,91.21
2022-11-15T19:11:45.429Z,91.43
2022-11-15T19:14:17.262Z,91.70
2022-11-15T19:16:55.282Z,91.99
2022-11-15T19:19:24.559Z,92.02
2022-11-15T19:21:52.063Z,91.90
2022-11-15T19:24:19.062Z,91.88
2022-11-15T19:26:46.386Z,92.10
2022-11-15T19:29:17.374Z,91.92
2022-11-15T19:31:45.120Z,91.91
2022-11-15T19:34:12.936Z,91.57
2022-11-15T19:36:41.884Z,91.88
2022-11-15T19:39:13.348Z,91.58
2022-11-15T19:41:50.137Z,91.42
2022-11-15T19:44:16.772Z,91.48
2022-11-15T19:46:44.387Z,90.98
2022-11-15T19:49:11.544Z,90.96
2022-11-15T19:51:39.145Z,90.46
2022-11-15T19:54:10.126Z,90.87
2022-11-15T19:56:37.500Z,90.96
2022-11-15T19:59:05.583Z,90.58
2022-11-15T20:01:36.385Z,90.88
2022-11-15T20:04:03.313Z,90.62
2022-11-15T20:06:34.923Z,89.99
2022-11-15T20:09:01.813Z,91.10
2022-11-15T20:11:28.646Z,91.13
2022-11-15T20:14:00.465Z,91.32
2022-11-15T20:16:27.019Z,91.08
2022-11-15T20:18:53.999Z,90.97
2022-11-15T20:21:21.971Z,90.66
2022-11-15T20:23:51.947Z,90.14
2022-11-15T20:26:19.441Z,90.50
2022-11-15T20:28:46.499Z,90.72
2022-11-15T20:31:13.252Z,90.93
2022-11-15T20:33:40.148Z,91.20
2022-11-15T20:36:09.650Z,91.04
2022-11-15T20:38:36.552Z,90.93
2022-11-15T20:41:03.352Z,90.84
2022-11-15T20:43:29.861Z,91.06
2022-11-15T20:45:56.545Z,91.35
2022-11-15T20:48:23.209Z,91.41
2022-11-15T20:50:49.740Z,91.67
2022-11-15T20:53:18.683Z,91.72
2022-11-15T20:55:48.172Z,92.08
2022-11-15T20:58:15.723Z,92.04
2022-11-15T21:00:43.313Z,91.96
2022-11-15T21:03:10.397Z,92.00
2022-11-15T21:05:41.504Z,91.48
2022-11-15T21:08:09.520Z,91.36
2022-11-15T21:10:54.618Z,91.04
2022-11-15T21:13:21.597Z,90.83
2022-11-15T21:15:48.141Z,90.67
2022-11-15T21:18:15.279Z,90.70
2022-11-15T21:20:42.412Z,90.90
2022-11-15T21:23:08.950Z,91.33
2022-11-15T21:25:36.912Z,90.79
2022-11-15T21:28:03.661Z,90.76
2022-11-15T21:30:30.635Z,91.22
2022-11-15T21:32:57.307Z,91.57
2022-11-15T21:35:24.210Z,91.34
2022-11-15T21:37:56.517Z,90.80
2022-11-15T21:40:24.451Z,91.28
2022-11-15T21:42:51.097Z,91.88
2022-11-15T21:45:17.629Z,92.22
2022-11-15T21:47:46.374Z,92.38
2022-11-15T21:50:13.518Z,92.14
2022-11-15T21:52:40.851Z,92.25
2022-11-15T21:55:08.303Z,92.14
2022-11-15T21:57:34.851Z,91.71
2022-11-15T22:00:20.094Z,91.20
2022-11-15T22:02:46.655Z,92.09
2022-11-15T22:05:13.254Z,91.91
2022-11-15T22:07:39.841Z,91.54
2022-11-15T22:10:07.171Z,91.78
2022-11-15T22:12:33.755Z,91.94
2022-11-15T22:15:00.442Z,91.56
2022-11-15T22:17:46.998Z,91.22
2022-11-15T22:20:37.788Z,91.60
2022-11-15T22:23:01.683Z,91.02
2022-11-15T22:25:28.716Z,91.44
2022-11-15T22:27:55.366Z,91.28
2022-11-15T22:30:23.163Z,91.73
2022-11-15T22:32:49.788Z,91.91
2022-11-15T22:35:16.783Z,92.17
2022-11-15T22:37:43.524Z,91.98
2022-11-15T22:40:10.600Z,91.39
2022-11-15T22:42:37.209Z,91.81
2022-11-15T22:45:04.332Z,91.84
2022-11-15T22:47:30.959Z,92.04
2022-11-15T22:49:58.061Z,92.24
2022-11-15T22:52:24.799Z,92.25
2022-11-15T22:54:51.582Z,92.05
2022-11-15T22:57:18.354Z,92.35
2022-11-15T22:59:45.110Z,92.23
2022-11-15T23:02:11.828Z,92.51
2022-11-15T23:04:38.460Z,92.30
2022-11-15T23:07:05.220Z,92.32
2022-11-15T23:09:31.909Z,92.57
2022-11-15T23:12:17.444Z,92.45
2022-11-15T23:14:44.051Z,92.66
2022-11-15T23:17:10.660Z,92.40
2022-11-15T23:19:37.347Z,92.23
2022-11-15T23:22:22.434Z,92.35
2022-11-15T23:24:49.262Z,92.33
2022-11-15T23:27:20.024Z,92.26
2022-11-15T23:30:05.587Z,92.60
2022-11-15T23:32:51.011Z,92.69
2022-11-15T23:35:17.680Z,92.63
2022-11-15T23:37:44.580Z,92.58
2022-11-15T23:40:12.094Z,92.48
2022-11-15T23:42:38.702Z,92.22
2022-11-15T23:45:06.314Z,92.20
2022-11-15T23:47:32.998Z,91.88
2022-11-15T23:49:59.640Z,92.12
2022-11-15T23:52:26.490Z,91.94
2022-11-15T23:54:53.110Z,91.62
2022-11-15T23:57:20.306Z,91.75
2022-11-15T23:59:47.764Z,91.74
